createdAt,value
2023-12-03T00:02:05.823Z,7.03
2023-12-03T00:07:08.773Z,7.15
2023-12-03T00:12:11.139Z,5.25
2023-12-03T00:17:13.521Z,6.38
2023-12-03T00:22:16.065Z,7.30
2023-12-03T00:27:19.369Z,6.50
2023-12-03T00:32:21.689Z,7.63
2023-12-03T00:37:24.302Z,7.53
2023-12-03T00:42:26.542Z,6.72
2023-12-03T00:47:28.675Z,8.18
2023-12-03T00:52:31.063Z,7.15
2023-12-03T00:57:33.825Z,6.00
2023-12-03T01:02:37.152Z,4.63
2023-12-03T01:07:39.408Z,7.55
2023-12-03T01:12:41.644Z,7.40
2023-12-03T01:17:44.118Z,7.97
2023-12-03T01:22:46.643Z,8.38
2023-12-03T01:27:48.902Z,7.47
2023-12-03T01:32:51.040Z,8.15
2023-12-03T01:37:53.121Z,8.05
2023-12-03T01:42:55.367Z,7.22
2023-12-03T01:47:57.721Z,7.65
2023-12-03T01:52:59.762Z,8.27
2023-12-03T01:58:03.259Z,8.77
2023-12-03T02:03:05.485Z,7.75
2023-12-03T02:08:07.721Z,7.93
2023-12-03T02:13:11.308Z,8.00
2023-12-03T02:18:13.880Z,7.43
2023-12-03T02:23:16.402Z,7.70
2023-12-03T02:28:19.619Z,7.63
2023-12-03T02:33:22.289Z,7.65
2023-12-03T02:38:24.373Z,5.97
2023-12-03T02:43:26.587Z,7.40
2023-12-03T02:48:28.836Z,6.55
2023-12-03T02:53:31.711Z,8.43
2023-12-03T02:58:34.699Z,9.38
2023-12-03T03:03:37.078Z,7.78
2023-12-03T03:08:39.739Z,9.27
2023-12-03T03:13:41.730Z,7.65
2023-12-03T03:18:43.786Z,8.77
2023-12-03T03:23:45.974Z,9.35
2023-12-03T03:28:52.029Z,8.10
2023-12-03T03:33:55.992Z,7.07
2023-12-03T03:38:58.293Z,6.82
2023-12-03T03:44:00.362Z,7.43
2023-12-03T03:49:05.608Z,8.07
2023-12-03T03:54:07.955Z,8.50
2023-12-03T03:59:09.953Z,9.52
2023-12-03T04:04:13.428Z,7.68
2023-12-03T04:09:15.714Z,7.80
2023-12-03T04:14:19.640Z,8.98
2023-12-03T04:19:21.727Z,8.27
2023-12-03T04:24:23.853Z,6.60
2023-12-03T04:29:26.002Z,7.75
2023-12-03T04:34:28.431Z,7.80
2023-12-03T04:39:31.297Z,8.23
2023-12-03T04:44:33.510Z,7.22
2023-12-03T04:49:35.714Z,6.50
2023-12-03T04:54:37.840Z,5.95
2023-12-03T04:59:40.258Z,6.18
2023-12-03T05:04:42.528Z,6.47
2023-12-03T05:09:44.599Z,7.60
2023-12-03T05:14:46.714Z,6.65
2023-12-03T05:19:48.746Z,6.32
2023-12-03T05:24:51.958Z,7.10
2023-12-03T05:29:54.369Z,6.68
2023-12-03T05:34:56.580Z,6.55
2023-12-03T05:39:59.825Z,6.32
2023-12-03T05:45:01.853Z,7.57
2023-12-03T05:50:05.926Z,5.65
2023-12-03T05:55:08.793Z,6.38
2023-12-03T06:00:12.194Z,6.05
2023-12-03T06:05:15.176Z,7.10
2023-12-03T06:10:17.729Z,6.28
2023-12-03T06:15:19.996Z,6.47
2023-12-03T06:20:22.200Z,3.95
2023-12-03T06:25:25.010Z,6.20
2023-12-03T06:30:27.135Z,6.60
2023-12-03T06:35:29.460Z,7.05
2023-12-03T06:40:31.537Z,6.00
2023-12-03T06:45:34.242Z,7.80
2023-12-03T06:50:37.361Z,6.90
2023-12-03T06:55:39.563Z,7.00
2023-12-03T07:00:42.076Z,7.72
2023-12-03T07:05:44.341Z,8.23
2023-12-03T07:10:46.485Z,7.75
2023-12-03T07:15:48.819Z,8.27
2023-12-03T07:20:51.307Z,6.90
2023-12-03T07:25:53.577Z,8.40
2023-12-03T07:30:55.739Z,7.65
2023-12-03T07:35:57.999Z,8.25
2023-12-03T07:41:01.277Z,8.40
2023-12-03T07:46:03.444Z,7.53
2023-12-03T07:51:11.089Z,6.80
2023-12-03T08:01:15.453Z,7.35
2023-12-03T08:06:17.559Z,8.30
2023-12-03T08:11:21.044Z,8.23
2023-12-03T08:16:23.195Z,7.65
2023-12-03T08:21:25.376Z,7.53
2023-12-03T08:26:28.326Z,8.88
2023-12-03T08:31:30.399Z,7.90
2023-12-03T08:36:32.801Z,7.70
2023-12-03T08:41:38.050Z,8.57
2023-12-03T08:46:40.277Z,7.82
2023-12-03T08:51:42.514Z,6.80
2023-12-03T08:56:47.721Z,6.35
2023-12-03T09:01:51.598Z,5.57
2023-12-03T09:06:53.791Z,5.40
2023-12-03T09:11:55.947Z,6.30
2023-12-03T09:16:59.707Z,4.90
2023-12-03T09:22:01.879Z,6.35
2023-12-03T09:27:04.233Z,6.03
2023-12-03T09:32:06.478Z,5.20
2023-12-03T09:37:09.683Z,6.55
2023-12-03T09:42:18.382Z,6.78
2023-12-03T09:47:25.489Z,5.95
2023-12-03T09:52:31.109Z,6.53
2023-12-03T09:57:36.612Z,5.68
2023-12-03T10:02:39.177Z,6.75
2023-12-03T10:07:41.927Z,6.32
2023-12-03T10:12:45.128Z,6.72
2023-12-03T10:17:47.681Z,6.57
2023-12-03T10:22:50.890Z,5.53
2023-12-03T10:27:57.535Z,4.93
2023-12-03T10:33:00.565Z,6.10
2023-12-03T10:38:09.622Z,6.60
2023-12-03T10:43:14.981Z,6.20
2023-12-03T10:48:17.251Z,6.30
2023-12-03T10:53:21.057Z,6.20
2023-12-03T10:58:23.310Z,6.55
2023-12-03T11:03:35.934Z,5.68
2023-12-03T11:08:39.350Z,5.97
2023-12-03T11:13:46.967Z,7.15
2023-12-03T11:19:06.888Z,6.32
2023-12-03T11:24:30.396Z,6.45
2023-12-03T11:29:51.577Z,5.90
2023-12-03T11:35:00.754Z,5.88
2023-12-03T11:40:14.154Z,5.55
2023-12-03T11:45:27.819Z,5.18
2023-12-03T11:50:31.680Z,5.13
2023-12-03T11:55:37.577Z,4.80
2023-12-03T12:00:41.065Z,5.15
2023-12-03T12:05:54.408Z,6.93
2023-12-03T12:10:57.429Z,6.32
2023-12-03T12:15:59.980Z,7.97
2023-12-03T12:21:12.214Z,3.83
2023-12-03T12:26:15.191Z,6.82
2023-12-03T12:31:21.053Z,7.43
2023-12-03T12:36:23.249Z,6.82
2023-12-03T12:41:25.465Z,6.05
2023-12-03T12:46:27.554Z,6.40
2023-12-03T12:51:29.698Z,5.32
2023-12-03T12:56:32.468Z,6.22
2023-12-03T13:01:34.774Z,6.70
2023-12-03T13:06:36.930Z,5.72
2023-12-03T13:11:39.045Z,6.82
2023-12-03T13:16:42.340Z,7.00
2023-12-03T13:21:45.727Z,4.88
2023-12-03T13:26:49.157Z,6.47
2023-12-03T13:31:51.309Z,5.22
2023-12-03T13:36:53.820Z,5.85
2023-12-03T13:41:55.875Z,6.88
2023-12-03T13:46:58.731Z,7.97
2023-12-03T13:52:00.832Z,7.82
2023-12-03T13:57:03.079Z,7.95
2023-12-03T14:02:06.678Z,7.18
2023-12-03T14:07:09.422Z,8.38
2023-12-03T14:12:12.493Z,7.60
2023-12-03T14:17:17.253Z,7.78
2023-12-03T14:22:19.311Z,6.78
2023-12-03T14:27:21.984Z,6.68
2023-12-03T14:32:24.054Z,7.57
2023-12-03T14:37:26.169Z,5.18
2023-12-03T14:42:29.364Z,7.00
2023-12-03T14:47:31.837Z,7.03
2023-12-03T14:52:33.984Z,5.75
2023-12-03T14:57:36.639Z,6.68
2023-12-03T15:02:38.886Z,7.70
2023-12-03T15:07:41.025Z,7.38
2023-12-03T15:12:43.175Z,6.72
2023-12-03T15:17:45.415Z,6.70
2023-12-03T15:22:47.528Z,7.22
2023-12-03T15:27:49.683Z,8.38
2023-12-03T15:32:52.131Z,8.98
2023-12-03T15:37:55.855Z,7.72
2023-12-03T15:42:58.214Z,8.98
2023-12-03T15:48:00.583Z,7.45
2023-12-03T15:53:03.016Z,8.00
2023-12-03T15:58:05.130Z,7.60
2023-12-03T16:03:07.856Z,9.10
2023-12-03T16:08:09.943Z,9.93
2023-12-03T16:13:12.387Z,10.13
2023-12-03T16:18:14.630Z,8.95
2023-12-03T16:23:17.039Z,9.88
2023-12-03T16:28:19.020Z,9.23
2023-12-03T16:33:21.457Z,10.40
2023-12-03T16:38:23.705Z,8.50
2023-12-03T16:43:25.872Z,9.40
2023-12-03T16:48:28.134Z,9.30
2023-12-03T16:53:30.465Z,9.43
2023-12-03T16:58:33.100Z,6.63
2023-12-03T17:03:35.100Z,9.10
2023-12-03T17:08:39.734Z,9.32
2023-12-03T17:13:41.807Z,9.13
2023-12-03T17:18:45.869Z,7.70
2023-12-03T17:23:48.078Z,7.72
2023-12-03T17:28:50.159Z,7.45
2023-12-03T17:33:52.274Z,9.98
2023-12-03T17:38:54.352Z,8.75
2023-12-03T17:43:56.492Z,8.18
2023-12-03T17:48:58.742Z,6.93
2023-12-03T17:54:00.852Z,7.25
2023-12-03T17:59:02.918Z,8.25
2023-12-03T18:04:05.102Z,7.75
2023-12-03T18:09:08.867Z,8.80
2023-12-03T18:14:11.245Z,8.27
2023-12-03T18:19:13.897Z,8.82
2023-12-03T18:24:16.059Z,8.85
2023-12-03T18:29:18.377Z,9.15
2023-12-03T18:34:20.480Z,8.32
2023-12-03T18:39:23.775Z,9.23
2023-12-03T18:44:28.085Z,11.32
2023-12-03T18:49:31.251Z,10.73
2023-12-03T18:54:35.618Z,11.10
2023-12-03T18:59:38.513Z,9.23
2023-12-03T19:04:40.678Z,10.90
2023-12-03T19:09:42.913Z,8.38
2023-12-03T19:14:44.939Z,8.98
2023-12-03T19:19:47.045Z,8.27
2023-12-03T19:24:49.278Z,7.80
2023-12-03T19:29:51.538Z,9.18
2023-12-03T19:34:53.679Z,9.80
2023-12-03T19:39:56.717Z,9.70
2023-12-03T19:44:58.841Z,9.48
2023-12-03T19:50:01.001Z,10.02
2023-12-03T19:55:06.189Z,9.70
2023-12-03T20:00:08.907Z,9.90
2023-12-03T20:05:16.129Z,8.80
2023-12-03T20:10:18.479Z,8.88
2023-12-03T20:15:25.351Z,11.45
2023-12-03T20:20:31.002Z,9.02
2023-12-03T20:25:34.405Z,10.10
2023-12-03T20:30:36.604Z,9.05
2023-12-03T20:35:38.962Z,9.20
2023-12-03T20:40:41.041Z,10.45
2023-12-03T20:45:43.174Z,8.27
2023-12-03T20:50:45.201Z,8.30
2023-12-03T20:55:47.387Z,6.80
2023-12-03T21:00:49.598Z,7.85
2023-12-03T21:05:51.844Z,6.72
2023-12-03T21:10:53.963Z,5.43
2023-12-03T21:15:56.033Z,7.18
2023-12-03T21:20:58.120Z,9.05
2023-12-03T21:26:00.175Z,8.43
2023-12-03T21:31:02.348Z,8.82
2023-12-03T21:36:05.369Z,9.02
2023-12-03T21:41:07.975Z,8.52
2023-12-03T21:46:10.427Z,9.38
2023-12-03T21:51:13.096Z,7.72
2023-12-03T21:56:15.452Z,9.05
2023-12-03T22:01:17.698Z,8.75
2023-12-03T22:06:20.952Z,8.07
2023-12-03T22:11:23.236Z,7.50
2023-12-03T22:16:25.526Z,8.80
2023-12-03T22:21:27.772Z,8.80
2023-12-03T22:26:29.943Z,8.10
2023-12-03T22:31:32.154Z,9.35
2023-12-03T22:36:34.342Z,8.07
2023-12-03T22:41:36.889Z,8.60
2023-12-03T22:46:39.138Z,6.75
2023-12-03T22:51:41.291Z,7.80
2023-12-03T22:56:43.889Z,6.50
2023-12-03T23:01:46.155Z,6.05
2023-12-03T23:06:48.362Z,5.68
2023-12-03T23:11:50.754Z,5.32
2023-12-03T23:16:53.035Z,4.90
2023-12-03T23:21:55.124Z,5.88
2023-12-03T23:27:03.283Z,4.55
2023-12-03T23:32:12.508Z,6.25
2023-12-03T23:37:16.714Z,4.32
2023-12-03T23:42:18.914Z,5.63
2023-12-03T23:47:21.062Z,4.70
2023-12-03T23:52:23.213Z,5.53
2023-12-03T23:57:25.693Z,6.38
